KRKS/RKS METAR and TAF weather

Enter ICAO airport designator
Station Type Date Time Source
KRKS METAR 2020/03/31 11:54 UTC NOAA

KRKS 311154Z AUTO 22008KT 10SM OVC065 03/M06 A3004 RMK AO2 SLP153 T00281061 10028 21006 56009


Station Type Date Time Source
KRKS Decoded METAR 2020/03/31 11:54 UTC NOAA

ROCK SPRINGS-SWEETWATER CO, WY, United States (KRKS) 41-36N 109-03W
Mar 31, 2020 - 07:54 AM EDT / 2020.03.31 1154 UTC
Wind: from the SW (220 degrees) at 9 MPH (8 KT):0
Visibility: 10 mile(s):0
Sky conditions: overcast
Temperature: 37.0 F (2.8 C)
Dew Point: 21.0 F (-6.1 C)
Relative Humidity: 51%
Pressure (altimeter): 30.04 in. Hg (1017 hPa)
Pressure tendency: 0.03 inches (0.9 hPa) lower than three hours ago
ob: KRKS 311154Z AUTO 22008KT 10SM OVC065 03/M06 A3004 RMK AO2 SLP153 T00281061 10028 21006 56009
cycle: 12

Station Type Date Time Source
KRKS TAF 2020/03/31 12:39 UTC NOAA

TAF KRKS 311137Z 3112/0112 25015KT P6SM BKN060
FM311500 25025G35KT P6SM BKN060
FM010200 26014G20KT P6SM VCSH BKN060

Example: see airport list